sensor_id;sensor_type;location;lat;lon;timestamp;P1;durP1;ratioP1;P2;durP2;ratioP2
61389;SDS011;47260;48.274;19.814;2023-04-24T00:00:43;16.75;;;13.68;;
61389;SDS011;47260;48.274;19.814;2023-04-24T00:02:16;18.85;;;14.05;;
61389;SDS011;47260;48.274;19.814;2023-04-24T00:03:48;15.38;;;11.68;;
61389;SDS011;47260;48.274;19.814;2023-04-24T00:05:20;16.20;;;12.48;;
61389;SDS011;47260;48.274;19.814;2023-04-24T00:06:52;14.32;;;11.50;;
61389;SDS011;47260;48.274;19.814;2023-04-24T00:08:27;18.88;;;11.40;;
61389;SDS011;47260;48.274;19.814;2023-04-24T00:09:58;14.45;;;11.13;;
61389;SDS011;47260;48.274;19.814;2023-04-24T00:11:30;15.32;;;11.65;;
61389;SDS011;47260;48.274;19.814;2023-04-24T00:13:02;15.40;;;11.75;;
61389;SDS011;47260;48.274;19.814;2023-04-24T00:14:33;15.32;;;11.48;;
61389;SDS011;47260;48.274;19.814;2023-04-24T00:16:05;14.55;;;11.63;;
61389;SDS011;47260;48.274;19.814;2023-04-24T00:17:38;14.82;;;11.13;;
61389;SDS011;47260;48.274;19.814;2023-04-24T00:19:10;16.58;;;11.13;;
61389;SDS011;47260;48.274;19.814;2023-04-24T00:20:42;15.77;;;11.27;;
61389;SDS011;47260;48.274;19.814;2023-04-24T00:22:14;18.45;;;12.40;;
61389;SDS011;47260;48.274;19.814;2023-04-24T00:23:45;19.92;;;13.07;;
61389;SDS011;47260;48.274;19.814;2023-04-24T00:25:17;18.33;;;13.02;;
61389;SDS011;47260;48.274;19.814;2023-04-24T00:26:48;15.90;;;12.98;;
61389;SDS011;47260;48.274;19.814;2023-04-24T00:28:20;17.33;;;13.32;;
61389;SDS011;47260;48.274;19.814;2023-04-24T00:29:52;19.30;;;14.13;;
61389;SDS011;47260;48.274;19.814;2023-04-24T00:31:23;19.23;;;14.23;;
61389;SDS011;47260;48.274;19.814;2023-04-24T00:32:57;17.58;;;12.40;;
61389;SDS011;47260;48.274;19.814;2023-04-24T00:34:29;18.33;;;12.85;;
61389;SDS011;47260;48.274;19.814;2023-04-24T00:36:02;15.65;;;12.20;;
61389;SDS011;47260;48.274;19.814;2023-04-24T00:37:34;20.35;;;13.85;;
61389;SDS011;47260;48.274;19.814;2023-04-24T00:39:06;21.27;;;13.77;;
61389;SDS011;47260;48.274;19.814;2023-04-24T00:40:39;18.73;;;12.70;;
61389;SDS011;47260;48.274;19.814;2023-04-24T00:42:10;17.80;;;13.88;;
61389;SDS011;47260;48.274;19.814;2023-04-24T00:43:42;15.82;;;11.80;;
61389;SDS011;47260;48.274;19.814;2023-04-24T00:45:14;16.88;;;12.48;;
61389;SDS011;47260;48.274;19.814;2023-04-24T00:46:46;19.23;;;13.10;;
61389;SDS011;47260;48.274;19.814;2023-04-24T00:48:23;17.85;;;12.85;;
61389;SDS011;47260;48.274;19.814;2023-04-24T00:49:56;16.00;;;12.02;;
61389;SDS011;47260;48.274;19.814;2023-04-24T00:51:27;17.95;;;13.32;;
61389;SDS011;47260;48.274;19.814;2023-04-24T00:53:00;17.02;;;12.90;;
61389;SDS011;47260;48.274;19.814;2023-04-24T00:54:31;19.70;;;13.52;;
61389;SDS011;47260;48.274;19.814;2023-04-24T00:56:03;19.50;;;14.38;;
61389;SDS011;47260;48.274;19.814;2023-04-24T00:57:36;19.55;;;13.55;;
61389;SDS011;47260;48.274;19.814;2023-04-24T00:59:08;16.63;;;13.43;;
61389;SDS011;47260;48.274;19.814;2023-04-24T01:00:40;19.00;;;12.40;;
61389;SDS011;47260;48.274;19.814;2023-04-24T01:02:12;16.65;;;12.85;;
61389;SDS011;47260;48.274;19.814;2023-04-24T01:03:47;16.92;;;12.50;;
61389;SDS011;47260;48.274;19.814;2023-04-24T01:05:19;17.67;;;13.02;;
61389;SDS011;47260;48.274;19.814;2023-04-24T01:06:51;15.52;;;13.00;;
61389;SDS011;47260;48.274;19.814;2023-04-24T01:08:23;17.27;;;12.93;;
61389;SDS011;47260;48.274;19.814;2023-04-24T01:09:55;17.40;;;11.43;;
61389;SDS011;47260;48.274;19.814;2023-04-24T01:11:29;16.08;;;12.35;;
61389;SDS011;47260;48.274;19.814;2023-04-24T01:13:01;16.00;;;11.90;;
61389;SDS011;47260;48.274;19.814;2023-04-24T01:14:33;15.60;;;12.13;;
61389;SDS011;47260;48.274;19.814;2023-04-24T01:16:04;15.45;;;11.90;;
61389;SDS011;47260;48.274;19.814;2023-04-24T01:17:38;14.40;;;11.82;;
61389;SDS011;47260;48.274;19.814;2023-04-24T01:19:10;14.00;;;11.10;;
61389;SDS011;47260;48.274;19.814;2023-04-24T01:20:42;14.13;;;12.00;;
61389;SDS011;47260;48.274;19.814;2023-04-24T01:22:18;15.38;;;12.18;;
61389;SDS011;47260;48.274;19.814;2023-04-24T01:23:50;16.90;;;12.68;;
61389;SDS011;47260;48.274;19.814;2023-04-24T01:25:22;28.33;;;14.18;;
61389;SDS011;47260;48.274;19.814;2023-04-24T01:26:55;18.55;;;13.02;;
61389;SDS011;47260;48.274;19.814;2023-04-24T01:28:27;16.65;;;11.85;;
61389;SDS011;47260;48.274;19.814;2023-04-24T01:29:59;16.85;;;13.05;;
61389;SDS011;47260;48.274;19.814;2023-04-24T01:31:30;16.83;;;12.55;;
61389;SDS011;47260;48.274;19.814;2023-04-24T01:33:03;16.92;;;12.30;;
61389;SDS011;47260;48.274;19.814;2023-04-24T01:34:35;16.45;;;12.88;;
61389;SDS011;47260;48.274;19.814;2023-04-24T01:36:08;16.77;;;12.75;;
61389;SDS011;47260;48.274;19.814;2023-04-24T01:37:43;16.65;;;11.80;;
61389;SDS011;47260;48.274;19.814;2023-04-24T01:39:15;17.13;;;11.20;;
61389;SDS011;47260;48.274;19.814;2023-04-24T01:40:46;17.67;;;11.05;;
61389;SDS011;47260;48.274;19.814;2023-04-24T01:42:18;15.80;;;11.07;;
61389;SDS011;47260;48.274;19.814;2023-04-24T01:43:51;17.90;;;12.15;;
61389;SDS011;47260;48.274;19.814;2023-04-24T01:45:23;14.90;;;11.48;;
61389;SDS011;47260;48.274;19.814;2023-04-24T01:46:55;15.65;;;11.52;;
61389;SDS011;47260;48.274;19.814;2023-04-24T01:48:27;14.90;;;10.95;;
61389;SDS011;47260;48.274;19.814;2023-04-24T01:50:00;17.83;;;12.57;;
61389;SDS011;47260;48.274;19.814;2023-04-24T01:51:32;18.45;;;13.13;;
61389;SDS011;47260;48.274;19.814;2023-04-24T01:53:05;17.38;;;12.45;;
61389;SDS011;47260;48.274;19.814;2023-04-24T01:54:37;15.88;;;11.82;;
61389;SDS011;47260;48.274;19.814;2023-04-24T01:56:08;17.00;;;11.88;;
61389;SDS011;47260;48.274;19.814;2023-04-24T01:57:41;15.75;;;12.00;;
61389;SDS011;47260;48.274;19.814;2023-04-24T01:59:12;16.30;;;11.25;;
61389;SDS011;47260;48.274;19.814;2023-04-24T02:00:43;17.20;;;11.15;;
61389;SDS011;47260;48.274;19.814;2023-04-24T02:02:15;16.40;;;10.75;;
61389;SDS011;47260;48.274;19.814;2023-04-24T02:03:46;16.13;;;12.13;;
61389;SDS011;47260;48.274;19.814;2023-04-24T02:05:18;15.65;;;11.43;;
61389;SDS011;47260;48.274;19.814;2023-04-24T02:06:50;13.07;;;11.15;;
61389;SDS011;47260;48.274;19.814;2023-04-24T02:08:23;15.40;;;10.95;;
61389;SDS011;47260;48.274;19.814;2023-04-24T02:09:55;13.50;;;10.75;;
61389;SDS011;47260;48.274;19.814;2023-04-24T02:11:26;15.90;;;10.75;;
61389;SDS011;47260;48.274;19.814;2023-04-24T02:12:58;14.23;;;11.52;;
61389;SDS011;47260;48.274;19.814;2023-04-24T02:14:30;14.93;;;10.52;;
61389;SDS011;47260;48.274;19.814;2023-04-24T02:16:02;17.15;;;12.20;;
61389;SDS011;47260;48.274;19.814;2023-04-24T02:17:34;13.98;;;10.50;;
61389;SDS011;47260;48.274;19.814;2023-04-24T02:19:08;10.88;;;9.40;;
61389;SDS011;47260;48.274;19.814;2023-04-24T02:20:38;13.73;;;9.00;;
61389;SDS011;47260;48.274;19.814;2023-04-24T02:22:10;13.25;;;10.00;;
61389;SDS011;47260;48.274;19.814;2023-04-24T02:23:43;12.10;;;9.73;;
61389;SDS011;47260;48.274;19.814;2023-04-24T02:25:16;14.93;;;10.80;;
61389;SDS011;47260;48.274;19.814;2023-04-24T02:26:48;11.73;;;10.43;;
61389;SDS011;47260;48.274;19.814;2023-04-24T02:28:20;14.13;;;10.75;;
61389;SDS011;47260;48.274;19.814;2023-04-24T02:29:54;12.20;;;9.82;;
61389;SDS011;47260;48.274;19.814;2023-04-24T02:31:26;14.48;;;10.57;;
61389;SDS011;47260;48.274;19.814;2023-04-24T02:32:57;13.27;;;10.68;;
61389;SDS011;47260;48.274;19.814;2023-04-24T02:34:29;13.63;;;10.10;;
61389;SDS011;47260;48.274;19.814;2023-04-24T02:36:03;14.45;;;10.93;;
61389;SDS011;47260;48.274;19.814;2023-04-24T02:37:35;13.65;;;10.65;;
61389;SDS011;47260;48.274;19.814;2023-04-24T02:39:08;15.18;;;11.13;;
61389;SDS011;47260;48.274;19.814;2023-04-24T02:40:40;14.85;;;11.18;;
61389;SDS011;47260;48.274;19.814;2023-04-24T02:42:14;13.20;;;11.02;;
61389;SDS011;47260;48.274;19.814;2023-04-24T02:43:45;14.10;;;11.07;;
61389;SDS011;47260;48.274;19.814;2023-04-24T02:45:17;13.27;;;10.02;;
61389;SDS011;47260;48.274;19.814;2023-04-24T02:46:48;15.75;;;10.93;;
61389;SDS011;47260;48.274;19.814;2023-04-24T02:48:20;13.93;;;10.85;;
61389;SDS011;47260;48.274;19.814;2023-04-24T02:49:52;14.20;;;10.13;;
61389;SDS011;47260;48.274;19.814;2023-04-24T02:51:23;13.52;;;10.18;;
61389;SDS011;47260;48.274;19.814;2023-04-24T02:52:55;12.35;;;10.00;;
61389;SDS011;47260;48.274;19.814;2023-04-24T02:54:27;13.63;;;10.35;;
61389;SDS011;47260;48.274;19.814;2023-04-24T02:55:59;13.48;;;9.60;;
61389;SDS011;47260;48.274;19.814;2023-04-24T02:57:31;13.32;;;10.30;;
61389;SDS011;47260;48.274;19.814;2023-04-24T02:59:02;14.57;;;10.65;;
61389;SDS011;47260;48.274;19.814;2023-04-24T03:00:33;17.58;;;11.88;;
61389;SDS011;47260;48.274;19.814;2023-04-24T03:02:05;15.90;;;12.25;;
61389;SDS011;47260;48.274;19.814;2023-04-24T03:03:37;16.30;;;11.88;;
61389;SDS011;47260;48.274;19.814;2023-04-24T03:05:09;16.17;;;12.35;;
61389;SDS011;47260;48.274;19.814;2023-04-24T03:06:42;19.05;;;13.35;;
61389;SDS011;47260;48.274;19.814;2023-04-24T03:08:13;17.20;;;13.13;;
61389;SDS011;47260;48.274;19.814;2023-04-24T03:09:47;17.05;;;11.70;;
61389;SDS011;47260;48.274;19.814;2023-04-24T03:11:19;15.30;;;12.35;;
61389;SDS011;47260;48.274;19.814;2023-04-24T03:12:51;16.58;;;12.07;;
61389;SDS011;47260;48.274;19.814;2023-04-24T03:14:22;17.75;;;13.15;;
61389;SDS011;47260;48.274;19.814;2023-04-24T03:15:54;15.75;;;12.95;;
61389;SDS011;47260;48.274;19.814;2023-04-24T03:17:25;19.25;;;13.38;;
61389;SDS011;47260;48.274;19.814;2023-04-24T03:18:56;15.43;;;12.90;;
61389;SDS011;47260;48.274;19.814;2023-04-24T03:20:30;19.33;;;14.02;;
61389;SDS011;47260;48.274;19.814;2023-04-24T03:22:02;18.38;;;12.93;;
61389;SDS011;47260;48.274;19.814;2023-04-24T03:23:35;16.33;;;12.40;;
61389;SDS011;47260;48.274;19.814;2023-04-24T03:25:08;18.40;;;12.45;;
61389;SDS011;47260;48.274;19.814;2023-04-24T03:26:40;20.45;;;13.90;;
61389;SDS011;47260;48.274;19.814;2023-04-24T03:28:32;15.98;;;12.38;;
61389;SDS011;47260;48.274;19.814;2023-04-24T03:30:07;18.15;;;12.05;;
61389;SDS011;47260;48.274;19.814;2023-04-24T03:32:00;17.85;;;12.80;;
61389;SDS011;47260;48.274;19.814;2023-04-24T03:33:32;15.25;;;12.05;;
61389;SDS011;47260;48.274;19.814;2023-04-24T03:35:05;16.08;;;12.63;;
61389;SDS011;47260;48.274;19.814;2023-04-24T03:36:37;20.92;;;12.27;;
61389;SDS011;47260;48.274;19.814;2023-04-24T03:38:11;17.45;;;12.27;;
61389;SDS011;47260;48.274;19.814;2023-04-24T03:39:42;17.80;;;12.52;;
61389;SDS011;47260;48.274;19.814;2023-04-24T03:41:17;17.23;;;12.85;;
61389;SDS011;47260;48.274;19.814;2023-04-24T03:43:02;18.25;;;12.40;;
61389;SDS011;47260;48.274;19.814;2023-04-24T03:44:34;17.15;;;11.57;;
61389;SDS011;47260;48.274;19.814;2023-04-24T03:46:05;19.48;;;13.20;;
61389;SDS011;47260;48.274;19.814;2023-04-24T03:47:42;17.25;;;11.65;;
61389;SDS011;47260;48.274;19.814;2023-04-24T03:49:13;18.63;;;12.45;;
61389;SDS011;47260;48.274;19.814;2023-04-24T03:50:47;15.95;;;12.25;;
61389;SDS011;47260;48.274;19.814;2023-04-24T03:52:19;15.88;;;12.05;;
61389;SDS011;47260;48.274;19.814;2023-04-24T03:53:50;17.30;;;11.63;;
61389;SDS011;47260;48.274;19.814;2023-04-24T03:55:24;15.80;;;11.45;;
61389;SDS011;47260;48.274;19.814;2023-04-24T03:56:58;14.00;;;10.75;;
61389;SDS011;47260;48.274;19.814;2023-04-24T03:58:32;14.15;;;10.63;;
61389;SDS011;47260;48.274;19.814;2023-04-24T04:00:05;13.73;;;10.35;;
61389;SDS011;47260;48.274;19.814;2023-04-24T04:01:44;14.77;;;10.95;;
61389;SDS011;47260;48.274;19.814;2023-04-24T04:03:21;14.82;;;10.48;;
61389;SDS011;47260;48.274;19.814;2023-04-24T04:04:53;14.75;;;9.98;;
61389;SDS011;47260;48.274;19.814;2023-04-24T04:06:25;13.20;;;9.88;;
61389;SDS011;47260;48.274;19.814;2023-04-24T04:07:58;14.27;;;11.13;;
61389;SDS011;47260;48.274;19.814;2023-04-24T04:09:30;13.60;;;10.52;;
61389;SDS011;47260;48.274;19.814;2023-04-24T04:11:02;13.60;;;10.23;;
61389;SDS011;47260;48.274;19.814;2023-04-24T04:12:36;12.85;;;10.68;;
61389;SDS011;47260;48.274;19.814;2023-04-24T04:14:06;16.90;;;12.32;;
61389;SDS011;47260;48.274;19.814;2023-04-24T04:15:43;16.23;;;11.00;;
61389;SDS011;47260;48.274;19.814;2023-04-24T04:17:14;14.38;;;10.25;;
61389;SDS011;47260;48.274;19.814;2023-04-24T04:18:46;16.45;;;11.52;;
61389;SDS011;47260;48.274;19.814;2023-04-24T04:20:19;17.52;;;11.95;;
61389;SDS011;47260;48.274;19.814;2023-04-24T04:21:51;15.13;;;11.65;;
61389;SDS011;47260;48.274;19.814;2023-04-24T04:23:37;16.27;;;12.88;;
61389;SDS011;47260;48.274;19.814;2023-04-24T04:25:23;19.92;;;13.65;;
61389;SDS011;47260;48.274;19.814;2023-04-24T04:26:55;17.35;;;13.90;;
61389;SDS011;47260;48.274;19.814;2023-04-24T04:28:35;16.85;;;13.57;;
61389;SDS011;47260;48.274;19.814;2023-04-24T04:30:08;17.08;;;13.05;;
61389;SDS011;47260;48.274;19.814;2023-04-24T04:31:49;18.17;;;13.82;;
61389;SDS011;47260;48.274;19.814;2023-04-24T04:33:21;17.63;;;13.40;;
61389;SDS011;47260;48.274;19.814;2023-04-24T04:34:53;18.17;;;12.95;;
61389;SDS011;47260;48.274;19.814;2023-04-24T04:36:25;18.60;;;13.65;;
61389;SDS011;47260;48.274;19.814;2023-04-24T04:38:04;16.63;;;13.07;;
61389;SDS011;47260;48.274;19.814;2023-04-24T04:39:51;18.13;;;13.50;;
61389;SDS011;47260;48.274;19.814;2023-04-24T04:41:29;25.52;;;14.30;;
61389;SDS011;47260;48.274;19.814;2023-04-24T04:43:01;17.65;;;13.35;;
61389;SDS011;47260;48.274;19.814;2023-04-24T04:44:42;16.27;;;13.33;;
61389;SDS011;47260;48.274;19.814;2023-04-24T04:46:19;23.42;;;16.20;;
61389;SDS011;47260;48.274;19.814;2023-04-24T04:48:01;28.27;;;18.35;;
61389;SDS011;47260;48.274;19.814;2023-04-24T04:49:35;31.08;;;20.60;;
61389;SDS011;47260;48.274;19.814;2023-04-24T04:51:09;31.00;;;20.17;;
61389;SDS011;47260;48.274;19.814;2023-04-24T04:52:40;41.78;;;24.65;;
61389;SDS011;47260;48.274;19.814;2023-04-24T04:54:23;37.17;;;24.38;;
61389;SDS011;47260;48.274;19.814;2023-04-24T04:55:55;35.50;;;22.98;;
61389;SDS011;47260;48.274;19.814;2023-04-24T04:57:31;29.38;;;19.50;;
61389;SDS011;47260;48.274;19.814;2023-04-24T04:59:03;30.42;;;19.92;;
61389;SDS011;47260;48.274;19.814;2023-04-24T05:00:38;28.45;;;20.80;;
61389;SDS011;47260;48.274;19.814;2023-04-24T05:02:29;29.20;;;20.35;;
61389;SDS011;47260;48.274;19.814;2023-04-24T05:04:00;20.08;;;16.13;;
61389;SDS011;47260;48.274;19.814;2023-04-24T05:05:32;22.10;;;15.30;;
61389;SDS011;47260;48.274;19.814;2023-04-24T05:07:04;16.48;;;13.48;;
61389;SDS011;47260;48.274;19.814;2023-04-24T05:08:39;15.65;;;12.43;;
61389;SDS011;47260;48.274;19.814;2023-04-24T05:10:15;15.20;;;12.50;;
61389;SDS011;47260;48.274;19.814;2023-04-24T05:11:47;14.20;;;11.68;;
61389;SDS011;47260;48.274;19.814;2023-04-24T05:13:19;15.57;;;12.10;;
61389;SDS011;47260;48.274;19.814;2023-04-24T05:14:50;17.00;;;13.10;;
61389;SDS011;47260;48.274;19.814;2023-04-24T05:16:24;15.18;;;12.73;;
61389;SDS011;47260;48.274;19.814;2023-04-24T05:17:57;14.40;;;12.65;;
61389;SDS011;47260;48.274;19.814;2023-04-24T05:19:30;18.45;;;13.20;;
61389;SDS011;47260;48.274;19.814;2023-04-24T05:21:03;15.40;;;13.40;;
61389;SDS011;47260;48.274;19.814;2023-04-24T05:22:35;18.08;;;13.85;;
61389;SDS011;47260;48.274;19.814;2023-04-24T05:24:07;16.73;;;12.88;;
61389;SDS011;47260;48.274;19.814;2023-04-24T05:25:50;17.85;;;14.07;;
61389;SDS011;47260;48.274;19.814;2023-04-24T05:27:23;20.50;;;14.77;;
61389;SDS011;47260;48.274;19.814;2023-04-24T05:28:55;18.52;;;13.73;;
61389;SDS011;47260;48.274;19.814;2023-04-24T05:30:27;19.20;;;15.05;;
61389;SDS011;47260;48.274;19.814;2023-04-24T05:32:01;19.38;;;13.93;;
61389;SDS011;47260;48.274;19.814;2023-04-24T05:33:34;16.20;;;13.32;;
61389;SDS011;47260;48.274;19.814;2023-04-24T05:35:06;17.17;;;13.30;;
61389;SDS011;47260;48.274;19.814;2023-04-24T05:36:40;17.92;;;12.80;;
61389;SDS011;47260;48.274;19.814;2023-04-24T05:38:13;19.27;;;12.10;;
61389;SDS011;47260;48.274;19.814;2023-04-24T05:39:48;15.15;;;11.00;;
61389;SDS011;47260;48.274;19.814;2023-04-24T05:41:20;15.98;;;10.77;;
61389;SDS011;47260;48.274;19.814;2023-04-24T05:42:52;16.05;;;11.48;;
61389;SDS011;47260;48.274;19.814;2023-04-24T05:44:24;15.32;;;10.95;;
61389;SDS011;47260;48.274;19.814;2023-04-24T05:45:56;11.45;;;9.60;;
61389;SDS011;47260;48.274;19.814;2023-04-24T05:47:29;15.52;;;9.02;;
61389;SDS011;47260;48.274;19.814;2023-04-24T05:49:02;15.70;;;10.50;;
61389;SDS011;47260;48.274;19.814;2023-04-24T05:50:35;16.10;;;9.18;;
61389;SDS011;47260;48.274;19.814;2023-04-24T05:52:07;12.85;;;9.45;;
61389;SDS011;47260;48.274;19.814;2023-04-24T05:53:41;11.20;;;9.63;;
61389;SDS011;47260;48.274;19.814;2023-04-24T05:55:13;15.23;;;8.93;;
61389;SDS011;47260;48.274;19.814;2023-04-24T05:56:48;13.43;;;9.75;;
61389;SDS011;47260;48.274;19.814;2023-04-24T05:58:27;14.07;;;8.43;;
61389;SDS011;47260;48.274;19.814;2023-04-24T06:00:00;13.50;;;9.27;;
61389;SDS011;47260;48.274;19.814;2023-04-24T06:01:33;11.27;;;9.02;;
61389;SDS011;47260;48.274;19.814;2023-04-24T06:03:16;11.73;;;8.75;;
61389;SDS011;47260;48.274;19.814;2023-04-24T06:04:48;10.18;;;8.32;;
61389;SDS011;47260;48.274;19.814;2023-04-24T06:06:21;9.60;;;8.60;;
61389;SDS011;47260;48.274;19.814;2023-04-24T06:07:53;10.55;;;8.40;;
61389;SDS011;47260;48.274;19.814;2023-04-24T06:09:27;10.57;;;8.15;;
61389;SDS011;47260;48.274;19.814;2023-04-24T06:10:59;11.90;;;8.85;;
61389;SDS011;47260;48.274;19.814;2023-04-24T06:12:30;14.10;;;9.18;;
61389;SDS011;47260;48.274;19.814;2023-04-24T06:14:07;14.68;;;9.25;;
61389;SDS011;47260;48.274;19.814;2023-04-24T06:15:41;10.77;;;8.05;;
61389;SDS011;47260;48.274;19.814;2023-04-24T06:17:24;12.52;;;8.95;;
61389;SDS011;47260;48.274;19.814;2023-04-24T06:18:57;11.63;;;9.23;;
61389;SDS011;47260;48.274;19.814;2023-04-24T06:20:28;12.90;;;8.50;;
61389;SDS011;47260;48.274;19.814;2023-04-24T06:22:00;13.20;;;10.07;;
61389;SDS011;47260;48.274;19.814;2023-04-24T06:23:32;13.90;;;10.10;;
61389;SDS011;47260;48.274;19.814;2023-04-24T06:25:04;13.70;;;10.90;;
61389;SDS011;47260;48.274;19.814;2023-04-24T06:26:37;14.27;;;10.98;;
61389;SDS011;47260;48.274;19.814;2023-04-24T06:28:11;11.38;;;10.02;;
61389;SDS011;47260;48.274;19.814;2023-04-24T06:29:43;11.80;;;9.02;;
61389;SDS011;47260;48.274;19.814;2023-04-24T06:31:15;12.68;;;9.27;;
61389;SDS011;47260;48.274;19.814;2023-04-24T06:32:47;11.70;;;9.30;;
61389;SDS011;47260;48.274;19.814;2023-04-24T06:34:20;11.13;;;8.27;;
61389;SDS011;47260;48.274;19.814;2023-04-24T06:35:52;12.82;;;9.80;;
61389;SDS011;47260;48.274;19.814;2023-04-24T06:37:24;16.17;;;10.82;;
61389;SDS011;47260;48.274;19.814;2023-04-24T06:38:55;12.10;;;8.82;;
61389;SDS011;47260;48.274;19.814;2023-04-24T06:40:27;10.75;;;9.15;;
61389;SDS011;47260;48.274;19.814;2023-04-24T06:41:59;12.00;;;9.65;;
61389;SDS011;47260;48.274;19.814;2023-04-24T06:43:31;15.13;;;10.60;;
61389;SDS011;47260;48.274;19.814;2023-04-24T06:45:03;11.70;;;9.38;;
61389;SDS011;47260;48.274;19.814;2023-04-24T06:46:35;12.63;;;10.60;;
61389;SDS011;47260;48.274;19.814;2023-04-24T06:48:07;15.27;;;10.82;;
61389;SDS011;47260;48.274;19.814;2023-04-24T06:49:40;14.15;;;10.07;;
61389;SDS011;47260;48.274;19.814;2023-04-24T06:51:12;13.25;;;8.80;;
61389;SDS011;47260;48.274;19.814;2023-04-24T06:52:44;11.88;;;7.93;;
61389;SDS011;47260;48.274;19.814;2023-04-24T06:54:15;12.18;;;7.97;;
61389;SDS011;47260;48.274;19.814;2023-04-24T06:55:47;11.73;;;8.35;;
61389;SDS011;47260;48.274;19.814;2023-04-24T06:57:19;13.52;;;8.80;;
61389;SDS011;47260;48.274;19.814;2023-04-24T06:58:51;11.98;;;8.52;;
61389;SDS011;47260;48.274;19.814;2023-04-24T07:00:23;10.93;;;9.15;;
61389;SDS011;47260;48.274;19.814;2023-04-24T07:01:55;10.80;;;8.38;;
61389;SDS011;47260;48.274;19.814;2023-04-24T07:03:27;13.10;;;9.50;;
61389;SDS011;47260;48.274;19.814;2023-04-24T07:05:00;12.68;;;9.18;;
61389;SDS011;47260;48.274;19.814;2023-04-24T07:06:32;12.80;;;8.32;;
61389;SDS011;47260;48.274;19.814;2023-04-24T07:08:06;12.32;;;9.30;;
61389;SDS011;47260;48.274;19.814;2023-04-24T07:09:38;11.35;;;8.98;;
61389;SDS011;47260;48.274;19.814;2023-04-24T07:11:12;11.98;;;9.65;;
61389;SDS011;47260;48.274;19.814;2023-04-24T07:12:44;19.08;;;9.32;;
61389;SDS011;47260;48.274;19.814;2023-04-24T07:14:16;11.57;;;9.70;;
61389;SDS011;47260;48.274;19.814;2023-04-24T07:15:48;13.52;;;10.50;;
61389;SDS011;47260;48.274;19.814;2023-04-24T07:17:21;16.63;;;12.57;;
61389;SDS011;47260;48.274;19.814;2023-04-24T07:18:52;18.27;;;12.48;;
61389;SDS011;47260;48.274;19.814;2023-04-24T07:20:25;12.38;;;11.07;;
61389;SDS011;47260;48.274;19.814;2023-04-24T07:21:57;16.25;;;13.18;;
61389;SDS011;47260;48.274;19.814;2023-04-24T07:23:29;18.00;;;12.60;;
61389;SDS011;47260;48.274;19.814;2023-04-24T07:25:01;14.63;;;11.30;;
61389;SDS011;47260;48.274;19.814;2023-04-24T07:26:33;14.23;;;11.77;;
61389;SDS011;47260;48.274;19.814;2023-04-24T07:28:04;13.40;;;10.93;;
61389;SDS011;47260;48.274;19.814;2023-04-24T07:29:36;17.98;;;13.07;;
61389;SDS011;47260;48.274;19.814;2023-04-24T07:31:08;14.82;;;12.05;;
61389;SDS011;47260;48.274;19.814;2023-04-24T07:32:40;16.83;;;12.80;;
61389;SDS011;47260;48.274;19.814;2023-04-24T07:34:11;15.38;;;13.35;;
61389;SDS011;47260;48.274;19.814;2023-04-24T07:35:44;16.25;;;12.15;;
61389;SDS011;47260;48.274;19.814;2023-04-24T07:37:16;12.23;;;9.77;;
61389;SDS011;47260;48.274;19.814;2023-04-24T07:38:48;12.65;;;9.98;;
61389;SDS011;47260;48.274;19.814;2023-04-24T07:40:20;13.18;;;10.05;;
61389;SDS011;47260;48.274;19.814;2023-04-24T07:41:52;15.50;;;10.38;;
61389;SDS011;47260;48.274;19.814;2023-04-24T07:43:24;13.05;;;9.80;;
61389;SDS011;47260;48.274;19.814;2023-04-24T07:44:56;11.82;;;10.23;;
61389;SDS011;47260;48.274;19.814;2023-04-24T07:46:29;11.90;;;10.13;;
61389;SDS011;47260;48.274;19.814;2023-04-24T07:48:01;11.50;;;10.13;;
61389;SDS011;47260;48.274;19.814;2023-04-24T07:49:33;15.20;;;11.23;;
61389;SDS011;47260;48.274;19.814;2023-04-24T07:51:06;13.32;;;9.73;;
61389;SDS011;47260;48.274;19.814;2023-04-24T07:52:40;12.45;;;10.05;;
61389;SDS011;47260;48.274;19.814;2023-04-24T07:54:12;11.15;;;9.80;;
61389;SDS011;47260;48.274;19.814;2023-04-24T07:55:43;11.88;;;10.23;;
61389;SDS011;47260;48.274;19.814;2023-04-24T07:57:15;12.52;;;10.20;;
61389;SDS011;47260;48.274;19.814;2023-04-24T07:58:47;14.60;;;10.98;;
61389;SDS011;47260;48.274;19.814;2023-04-24T08:00:19;13.68;;;10.50;;
61389;SDS011;47260;48.274;19.814;2023-04-24T08:01:51;17.25;;;12.18;;
61389;SDS011;47260;48.274;19.814;2023-04-24T08:03:24;16.83;;;11.65;;
61389;SDS011;47260;48.274;19.814;2023-04-24T08:04:55;15.85;;;11.93;;
61389;SDS011;47260;48.274;19.814;2023-04-24T08:06:29;13.65;;;12.15;;
61389;SDS011;47260;48.274;19.814;2023-04-24T08:08:02;14.98;;;12.60;;
61389;SDS011;47260;48.274;19.814;2023-04-24T08:09:33;16.17;;;12.77;;
61389;SDS011;47260;48.274;19.814;2023-04-24T08:11:05;17.88;;;12.85;;
61389;SDS011;47260;48.274;19.814;2023-04-24T08:12:37;15.40;;;13.52;;
61389;SDS011;47260;48.274;19.814;2023-04-24T08:14:09;14.18;;;12.77;;
61389;SDS011;47260;48.274;19.814;2023-04-24T08:15:42;18.90;;;14.48;;
61389;SDS011;47260;48.274;19.814;2023-04-24T08:17:14;17.05;;;13.77;;
61389;SDS011;47260;48.274;19.814;2023-04-24T08:18:46;17.08;;;12.90;;
61389;SDS011;47260;48.274;19.814;2023-04-24T08:20:17;18.55;;;13.70;;
61389;SDS011;47260;48.274;19.814;2023-04-24T08:21:50;19.58;;;15.23;;
61389;SDS011;47260;48.274;19.814;2023-04-24T08:23:22;13.77;;;11.27;;
61389;SDS011;47260;48.274;19.814;2023-04-24T08:24:54;16.42;;;11.80;;
61389;SDS011;47260;48.274;19.814;2023-04-24T08:26:26;13.82;;;11.70;;
61389;SDS011;47260;48.274;19.814;2023-04-24T08:27:58;15.70;;;11.30;;
61389;SDS011;47260;48.274;19.814;2023-04-24T08:29:29;17.27;;;13.43;;
61389;SDS011;47260;48.274;19.814;2023-04-24T08:31:01;16.67;;;12.32;;
61389;SDS011;47260;48.274;19.814;2023-04-24T08:32:33;22.50;;;17.05;;
61389;SDS011;47260;48.274;19.814;2023-04-24T08:34:04;24.10;;;17.02;;
61389;SDS011;47260;48.274;19.814;2023-04-24T08:35:36;19.85;;;16.88;;
61389;SDS011;47260;48.274;19.814;2023-04-24T08:37:09;19.33;;;16.25;;
61389;SDS011;47260;48.274;19.814;2023-04-24T08:38:42;19.45;;;14.00;;
61389;SDS011;47260;48.274;19.814;2023-04-24T08:40:16;19.30;;;14.80;;
61389;SDS011;47260;48.274;19.814;2023-04-24T08:41:48;32.83;;;15.80;;
61389;SDS011;47260;48.274;19.814;2023-04-24T08:43:20;19.55;;;13.85;;
61389;SDS011;47260;48.274;19.814;2023-04-24T08:44:53;17.35;;;13.77;;
61389;SDS011;47260;48.274;19.814;2023-04-24T08:46:25;22.08;;;14.88;;
61389;SDS011;47260;48.274;19.814;2023-04-24T08:47:58;19.20;;;15.80;;
61389;SDS011;47260;48.274;19.814;2023-04-24T08:49:31;24.27;;;16.90;;
61389;SDS011;47260;48.274;19.814;2023-04-24T08:51:04;22.08;;;15.88;;
61389;SDS011;47260;48.274;19.814;2023-04-24T08:52:40;20.40;;;16.48;;
61389;SDS011;47260;48.274;19.814;2023-04-24T08:54:13;19.25;;;16.27;;
61389;SDS011;47260;48.274;19.814;2023-04-24T08:55:46;18.48;;;14.73;;
61389;SDS011;47260;48.274;19.814;2023-04-24T08:57:19;22.90;;;17.85;;